Time;durP1;ratioP1;P1;durP2;ratioP2;P2;SDS_P1;SDS_P2;PMS_P1;PMS_P2;Temp;Humidity;BMP_temperature;BMP_pressure;BME280_temperature;BME280_humidity;BME280_pressure;Samples;Min_cycle;Max_cycle;Signal;HPM_P1;HPM_P2
2022/02/19 00:00:50;;;;;;;9.53;1.70;;;;;;;6.50;48.25;98881.78;5017026;28;20229;-68
2022/02/19 00:03:17;;;;;;;4.33;1.20;;;;;;;6.48;47.70;98874.91;5017667;28;20690;-69
2022/02/19 00:05:44;;;;;;;9.33;1.40;;;;;;;6.47;48.17;98878.50;5010233;28;20223;-68
2022/02/19 00:08:13;;;;;;;7.27;1.40;;;;;;;6.46;48.83;98908.56;5015353;28;20202;-69
2022/02/19 00:10:40;;;;;;;6.73;1.80;;;;;;;6.49;48.78;98877.44;5018270;28;20198;-69
2022/02/19 00:13:06;;;;;;;6.57;2.40;;;;;;;6.46;48.45;98913.84;5023569;28;20198;-70
2022/02/19 00:15:33;;;;;;;10.50;1.60;;;;;;;6.46;48.43;98882.09;5020302;28;20819;-70
2022/02/19 00:18:00;;;;;;;7.93;2.03;;;;;;;6.45;48.60;98886.56;5017682;28;20584;-70
2022/02/19 00:20:26;;;;;;;6.57;1.37;;;;;;;6.43;49.25;98848.00;5021740;28;20232;-70
2022/02/19 00:22:54;;;;;;;8.67;1.60;;;;;;;6.43;48.84;98882.38;5017555;28;20210;-70
2022/02/19 00:25:22;;;;;;;8.53;1.77;;;;;;;6.44;49.21;98910.50;5028520;28;20221;-70
2022/02/19 00:27:48;;;;;;;13.70;2.77;;;;;;;6.44;49.60;98887.53;5025459;28;20206;-70
2022/02/19 00:30:15;;;;;;;5.50;1.60;;;;;;;6.45;49.66;98880.47;5023994;28;20592;-71
2022/02/19 00:32:41;;;;;;;8.73;1.70;;;;;;;6.48;49.56;98880.19;5026411;28;20587;-70
2022/02/19 00:35:08;;;;;;;5.87;1.70;;;;;;;6.44;48.92;98892.00;5025269;28;20686;-72
2022/02/19 00:37:35;;;;;;;9.30;1.80;;;;;;;6.44;49.05;98913.16;5024515;28;20202;-70
2022/02/19 00:40:01;;;;;;;7.27;1.53;;;;;;;6.43;48.92;98909.66;5015970;28;20210;-70
2022/02/19 00:42:29;;;;;;;5.97;1.90;;;;;;;6.47;49.38;98921.66;5027857;28;20699;-72
2022/02/19 00:44:56;;;;;;;5.83;1.50;;;;;;;6.42;49.43;98922.97;5026998;28;20206;-72
2022/02/19 00:47:22;;;;;;;10.33;1.90;;;;;;;6.43;48.88;98922.03;5020109;28;20210;-72
2022/02/19 00:49:49;;;;;;;11.13;1.47;;;;;;;6.46;48.95;98937.66;5026596;28;20198;-72
2022/02/19 00:52:15;;;;;;;5.73;1.43;;;;;;;6.50;49.62;98925.88;5013640;28;20557;-72
2022/02/19 00:54:42;;;;;;;4.20;1.27;;;;;;;6.47;49.20;98936.69;5014608;28;20199;-70
2022/02/19 00:57:08;;;;;;;6.23;1.60;;;;;;;6.44;49.33;98966.03;5018527;28;20241;-72
2022/02/19 00:59:36;;;;;;;7.47;1.50;;;;;;;6.43;49.49;98959.91;5015964;28;20203;-71
2022/02/19 01:02:03;;;;;;;6.43;1.50;;;;;;;6.45;49.13;98954.50;5020096;28;20226;-71
2022/02/19 01:04:29;;;;;;;7.10;1.83;;;;;;;6.43;49.20;98945.81;5011883;28;20206;-71
2022/02/19 01:06:56;;;;;;;6.33;1.73;;;;;;;6.40;48.82;98961.91;5018404;28;20701;-71
2022/02/19 01:09:26;;;;;;;5.03;1.60;;;;;;;6.38;48.83;98974.41;5013735;28;20214;-70
2022/02/19 01:11:52;;;;;;;4.23;1.30;;;;;;;6.40;49.06;98916.97;5021676;28;20309;-71
2022/02/19 01:14:19;;;;;;;6.57;1.73;;;;;;;6.41;49.04;98969.75;5019836;28;20686;-71
2022/02/19 01:16:47;;;;;;;5.93;1.60;;;;;;;6.34;48.68;98971.13;5021538;28;20228;-71
2022/02/19 01:19:13;;;;;;;7.53;1.30;;;;;;;6.30;49.59;98966.16;5017013;28;20207;-71
2022/02/19 01:21:40;;;;;;;6.00;1.73;;;;;;;6.32;49.44;99001.28;5019301;28;20237;-72
2022/02/19 01:24:07;;;;;;;8.00;1.40;;;;;;;6.32;49.31;99001.28;5020060;28;20199;-71
2022/02/19 01:26:33;;;;;;;4.53;1.37;;;;;;;6.27;49.75;99031.53;5019835;28;20228;-71
2022/02/19 01:29:01;;;;;;;4.97;1.10;;;;;;;6.27;49.40;98997.16;5018243;28;20203;-71
2022/02/19 01:31:28;;;;;;;5.97;1.33;;;;;;;6.25;49.35;98993.81;5022515;28;20216;-71
2022/02/19 01:33:55;;;;;;;4.40;1.20;;;;;;;6.22;49.55;99017.81;5028798;28;20210;-71
2022/02/19 01:36:22;;;;;;;4.40;1.13;;;;;;;6.25;49.88;99051.13;5017564;28;20237;-71
2022/02/19 01:38:48;;;;;;;7.43;0.90;;;;;;;6.22;50.02;99036.31;5020216;28;20211;-70
2022/02/19 01:41:15;;;;;;;4.47;0.90;;;;;;;6.15;50.20;99056.19;5018721;28;20247;-70
2022/02/19 01:43:42;;;;;;;4.77;1.67;;;;;;;6.09;49.96;99050.50;5013786;28;20203;-70
2022/02/19 01:46:09;;;;;;;5.07;0.70;;;;;;;6.03;50.61;99064.16;5020617;28;20231;-71
2022/02/19 01:48:35;;;;;;;6.13;1.40;;;;;;;6.02;50.46;99055.38;5011547;28;20210;-71
2022/02/19 01:51:03;;;;;;;3.27;1.10;;;;;;;6.05;50.90;99060.44;5019547;28;20203;-72
2022/02/19 01:53:32;;;;;;;3.90;0.70;;;;;;;6.01;50.68;99093.31;5022362;28;20214;-71
2022/02/19 01:55:59;;;;;;;4.80;0.80;;;;;;;5.99;50.65;99084.66;5016642;28;20245;-72
2022/02/19 01:58:26;;;;;;;4.07;1.60;;;;;;;5.95;50.26;99082.31;5017587;28;20206;-71
2022/02/19 02:00:52;;;;;;;6.53;1.33;;;;;;;5.94;50.76;99068.25;5019263;28;20600;-71
2022/02/19 02:03:19;;;;;;;2.13;1.07;;;;;;;5.96;50.66;99074.28;5014942;28;20210;-71
2022/02/19 02:05:47;;;;;;;4.80;1.03;;;;;;;5.93;50.99;99069.22;5010063;28;20234;-71
2022/02/19 02:08:15;;;;;;;2.47;1.10;;;;;;;5.91;51.04;99060.56;5014062;28;20213;-70
2022/02/19 02:10:43;;;;;;;5.83;1.03;;;;;;;5.89;50.90;99043.97;5011631;28;20202;-70
2022/02/19 02:13:09;;;;;;;7.80;1.27;;;;;;;5.83;51.12;99053.13;5021078;28;20206;-70
2022/02/19 02:15:36;;;;;;;2.87;0.80;;;;;;;5.82;51.24;99038.22;5020729;28;20712;-71
2022/02/19 02:18:03;;;;;;;5.30;0.90;;;;;;;5.83;51.38;99047.00;5023552;28;20205;-71
2022/02/19 02:20:30;;;;;;;5.30;1.13;;;;;;;5.85;51.42;99047.75;5024972;28;20225;-70
2022/02/19 02:22:59;;;;;;;5.60;1.13;;;;;;;5.85;51.90;99051.22;5021274;28;20203;-71
2022/02/19 02:25:28;;;;;;;6.53;1.00;;;;;;;5.87;51.87;99081.03;5019737;28;20588;-70
2022/02/19 02:27:55;;;;;;;6.50;0.90;;;;;;;5.85;52.14;99088.22;5021123;28;20580;-71
2022/02/19 02:30:22;;;;;;;4.93;1.30;;;;;;;5.86;52.23;99105.75;5023171;28;20210;-70
2022/02/19 02:32:49;;;;;;;5.57;1.00;;;;;;;5.85;52.28;99090.03;5020553;28;20226;-70
2022/02/19 02:35:17;;;;;;;7.97;1.13;;;;;;;5.84;52.59;99147.28;5021743;28;20241;-73
2022/02/19 02:37:43;;;;;;;6.00;1.00;;;;;;;5.79;52.61;99120.34;5026681;28;20521;-70
2022/02/19 02:40:12;;;;;;;4.93;0.90;;;;;;;5.78;52.60;99107.22;5014410;28;20214;-73
2022/02/19 02:42:39;;;;;;;4.00;0.90;;;;;;;5.77;52.44;99114.31;5026080;28;20230;-72
2022/02/19 02:45:07;;;;;;;4.57;0.90;;;;;;;5.74;52.49;99126.88;5023460;28;20202;-73
2022/02/19 02:47:35;;;;;;;4.33;1.47;;;;;;;5.72;52.93;99124.34;5029700;28;20206;-72
2022/02/19 02:50:02;;;;;;;5.63;1.40;;;;;;;5.77;52.74;99114.31;5016767;28;20940;-72
2022/02/19 02:52:29;;;;;;;7.20;1.80;;;;;;;5.76;52.88;99115.25;5037902;28;20228;-73
2022/02/19 02:54:55;;;;;;;6.53;1.47;;;;;;;5.72;53.63;99134.94;5028890;28;20210;-72
2022/02/19 02:57:23;;;;;;;5.07;1.00;;;;;;;5.73;53.78;99120.75;5031843;28;20206;-73
2022/02/19 02:59:50;;;;;;;5.63;0.70;;;;;;;5.74;53.97;99148.00;5035374;22;20232;-82
2022/02/19 03:02:16;;;;;;;6.03;1.47;;;;;;;5.72;55.01;99152.56;5029565;28;20238;-81
2022/02/19 03:04:43;;;;;;;10.30;1.50;;;;;;;5.72;56.02;99174.53;5014075;28;20203;-81
2022/02/19 03:07:09;;;;;;;2.50;1.10;;;;;;;5.65;56.87;99167.13;5015737;28;20237;-80
2022/02/19 03:09:36;;;;;;;4.67;1.40;;;;;;;5.64;57.23;99171.56;5013565;28;20224;-82
2022/02/19 03:12:03;;;;;;;5.40;1.43;;;;;;;5.61;58.15;99173.53;5020881;28;20285;-80
2022/02/19 03:14:30;;;;;;;4.83;0.93;;;;;;;5.56;58.55;99165.91;5007456;28;20223;-80
2022/02/19 03:16:57;;;;;;;4.70;1.30;;;;;;;5.54;58.59;99199.53;5018785;28;20207;-80
2022/02/19 03:19:23;;;;;;;5.20;1.07;;;;;;;5.50;58.80;99182.19;5018882;28;20234;-80
2022/02/19 03:21:50;;;;;;;7.20;1.67;;;;;;;5.42;59.85;99195.03;5012959;28;20235;-78
2022/02/19 03:24:18;;;;;;;3.77;1.10;;;;;;;5.33;60.51;99196.50;5009983;28;20676;-79
2022/02/19 03:26:45;;;;;;;4.03;1.10;;;;;;;5.29;61.26;99210.84;5024935;28;20210;-78
2022/02/19 03:29:12;;;;;;;6.90;1.50;;;;;;;5.18;62.62;99202.78;5017839;28;20223;-80
2022/02/19 03:31:39;;;;;;;5.80;0.80;;;;;;;5.11;62.72;99212.00;5015939;28;20211;-80
2022/02/19 03:34:06;;;;;;;5.20;1.73;;;;;;;5.07;62.98;99236.91;5006427;28;20227;-80
2022/02/19 03:36:33;;;;;;;4.83;1.50;;;;;;;5.01;63.12;99253.97;5016127;28;20298;-80
2022/02/19 03:38:59;;;;;;;6.23;1.50;;;;;;;4.95;63.97;99253.50;5005346;28;20625;-80
2022/02/19 03:41:26;;;;;;;7.47;1.10;;;;;;;4.99;64.25;99268.22;5007336;28;20242;-78
2022/02/19 03:43:52;;;;;;;4.03;1.23;;;;;;;4.97;64.39;99247.19;5003842;28;20204;-80
2022/02/19 03:46:19;;;;;;;3.83;0.73;;;;;;;4.94;64.92;99296.66;5017239;28;20219;-81
2022/02/19 03:48:47;;;;;;;4.13;1.13;;;;;;;4.84;64.75;99244.47;5005790;28;20210;-80
2022/02/19 03:51:13;;;;;;;3.47;1.20;;;;;;;4.88;64.61;99274.13;5015561;28;20683;-80
2022/02/19 03:53:40;;;;;;;4.33;0.83;;;;;;;4.83;64.41;99266.53;5008367;28;20222;-80
2022/02/19 03:56:06;;;;;;;11.83;1.50;;;;;;;4.80;64.42;99277.25;5016155;28;20215;-84
2022/02/19 03:58:34;;;;;;;5.30;1.33;;;;;;;4.78;64.35;99296.75;5004446;28;20211;-80
2022/02/19 04:01:01;;;;;;;6.37;1.33;;;;;;;4.84;64.12;99312.19;5010632;28;20219;-80
2022/02/19 04:03:28;;;;;;;7.10;1.20;;;;;;;4.81;64.40;99310.63;5025047;28;20292;-81
2022/02/19 04:05:55;;;;;;;4.27;1.17;;;;;;;4.82;64.54;99330.78;5003705;28;20219;-80
2022/02/19 04:08:22;;;;;;;4.00;1.00;;;;;;;4.86;63.90;99349.88;5023383;28;20221;-80
2022/02/19 04:10:48;;;;;;;6.67;1.50;;;;;;;4.80;64.50;99381.91;5020866;28;20227;-77
2022/02/19 04:13:15;;;;;;;5.90;1.40;;;;;;;4.81;64.83;99363.38;5011064;28;20212;-80
2022/02/19 04:15:41;;;;;;;3.20;1.13;;;;;;;4.81;65.80;99400.28;4999705;28;20212;-80
2022/02/19 04:18:08;;;;;;;6.43;1.07;;;;;;;4.78;65.95;99389.06;4999213;28;20215;-81
2022/02/19 04:20:35;;;;;;;3.30;1.00;;;;;;;4.76;66.95;99423.44;5011162;28;20273;-81
2022/02/19 04:23:03;;;;;;;3.57;1.00;;;;;;;4.71;67.77;99433.41;5011581;28;20234;-80
2022/02/19 04:25:29;;;;;;;5.73;0.97;;;;;;;4.68;68.16;99423.03;5014254;28;20222;-80
2022/02/19 04:28:01;;;;;;;2.90;1.00;;;;;;;4.63;68.80;99446.22;5013205;28;20238;-80
2022/02/19 04:30:27;;;;;;;4.70;1.20;;;;;;;4.60;69.36;99449.03;5007749;28;20231;-80
2022/02/19 04:32:56;;;;;;;8.57;1.57;;;;;;;4.48;70.79;99447.06;5011169;28;20329;-80
2022/02/19 04:35:23;;;;;;;9.87;1.53;;;;;;;4.43;71.41;99460.53;5003645;28;20207;-82
2022/02/19 04:37:50;;;;;;;3.13;1.30;;;;;;;4.31;73.04;99453.31;5013761;28;20298;-79
2022/02/19 04:40:17;;;;;;;6.77;1.33;;;;;;;4.20;73.18;99468.88;4999377;28;20236;-80
2022/02/19 04:42:44;;;;;;;6.97;1.53;;;;;;;4.17;72.78;99467.28;5010188;28;20223;-81
2022/02/19 04:45:11;;;;;;;10.30;1.97;;;;;;;4.14;73.81;99488.53;5004246;28;20199;-80
2022/02/19 04:47:37;;;;;;;7.07;1.20;;;;;;;4.10;73.52;99481.75;5005949;28;20213;-80
2022/02/19 04:50:05;;;;;;;7.67;1.20;;;;;;;4.04;74.01;99513.69;5012303;28;20223;-79
2022/02/19 04:52:32;;;;;;;5.77;1.20;;;;;;;4.05;74.86;99514.53;5010595;28;20203;-80
2022/02/19 04:54:59;;;;;;;6.23;1.30;;;;;;;4.02;74.70;99526.09;5013194;28;20213;-81
2022/02/19 04:57:27;;;;;;;7.30;1.20;;;;;;;3.99;75.09;99520.97;5007616;28;20217;-81
2022/02/19 04:59:54;;;;;;;8.23;1.23;;;;;;;3.92;75.40;99519.63;5009946;28;20238;-81
2022/02/19 05:02:21;;;;;;;5.23;1.30;;;;;;;3.91;75.96;99528.47;5002979;28;20230;-82
2022/02/19 05:04:48;;;;;;;4.17;1.00;;;;;;;3.86;75.83;99533.13;5011508;28;20209;-80
2022/02/19 05:07:15;;;;;;;7.67;1.27;;;;;;;3.85;76.09;99541.94;5008126;28;20219;-81
2022/02/19 05:09:41;;;;;;;2.97;1.20;;;;;;;3.78;76.10;99536.16;5003471;28;20215;-81
2022/02/19 05:12:08;;;;;;;5.67;1.87;;;;;;;3.76;76.51;99556.44;5003188;28;20258;-83
2022/02/19 05:14:36;;;;;;;3.63;1.00;;;;;;;3.74;76.76;99562.75;5006623;28;20215;-81
2022/02/19 05:17:03;;;;;;;8.70;1.10;;;;;;;3.75;76.36;99567.09;5010015;28;20199;-80
2022/02/19 05:19:30;;;;;;;5.23;1.30;;;;;;;3.80;76.29;99568.53;5014078;28;20232;-80
2022/02/19 05:21:56;;;;;;;5.73;1.10;;;;;;;3.78;76.90;99565.13;5001937;28;20227;-80
2022/02/19 05:24:23;;;;;;;6.33;1.00;;;;;;;3.80;75.83;99573.78;5006458;28;20207;-81
2022/02/19 05:26:49;;;;;;;3.60;0.90;;;;;;;3.83;76.37;99592.06;5005517;28;20935;-80
2022/02/19 05:29:16;;;;;;;3.23;0.93;;;;;;;3.84;76.19;99595.56;5003993;28;20223;-79
2022/02/19 05:31:44;;;;;;;4.87;1.10;;;;;;;3.80;76.55;99594.88;5003846;28;20303;-80
2022/02/19 05:34:11;;;;;;;4.37;0.83;;;;;;;3.79;76.29;99624.75;5008289;28;20202;-80
2022/02/19 05:36:37;;;;;;;5.33;1.30;;;;;;;3.82;76.11;99613.22;5009890;28;20802;-80
2022/02/19 05:39:04;;;;;;;3.83;1.20;;;;;;;3.77;76.54;99605.56;5006076;28;20314;-80
2022/02/19 05:41:31;;;;;;;7.27;1.40;;;;;;;3.76;76.54;99609.13;5005683;28;20211;-83
2022/02/19 05:44:00;;;;;;;4.27;1.20;;;;;;;3.78;77.14;99616.94;5005233;28;20680;-80
2022/02/19 05:46:26;;;;;;;7.20;1.57;;;;;;;3.75;77.16;99632.94;5009732;28;20298;-82
2022/02/19 05:48:54;;;;;;;6.93;1.60;;;;;;;3.74;76.49;99625.94;5013471;28;20211;-80
2022/02/19 05:51:21;;;;;;;10.70;1.50;;;;;;;3.74;77.21;99615.41;5010247;28;20211;-82
2022/02/19 05:53:47;;;;;;;6.60;1.50;;;;;;;3.70;76.97;99629.66;5012142;28;20221;-84
2022/02/19 05:56:14;;;;;;;6.63;1.53;;;;;;;3.72;76.66;99627.81;5007004;28;20199;-81
2022/02/19 05:58:43;;;;;;;5.77;1.20;;;;;;;3.73;75.91;99634.78;5018870;28;20217;-79
2022/02/19 06:01:09;;;;;;;7.57;1.27;;;;;;;3.74;75.70;99636.47;5017951;28;20760;-80
2022/02/19 06:03:36;;;;;;;4.33;1.23;;;;;;;3.76;75.30;99650.44;5027753;28;20224;-81
2022/02/19 06:06:04;;;;;;;2.73;0.93;;;;;;;3.77;73.86;99638.94;5023477;28;20306;-80
2022/02/19 06:08:31;;;;;;;6.43;0.97;;;;;;;3.81;73.79;99638.72;5017399;28;20534;-80
2022/02/19 06:10:57;;;;;;;4.60;1.23;;;;;;;3.87;72.60;99655.13;5018548;28;20239;-80
2022/02/19 06:13:24;;;;;;;5.00;1.23;;;;;;;3.89;71.65;99646.22;5018074;28;20217;-81
2022/02/19 06:15:51;;;;;;;4.40;1.30;;;;;;;3.95;71.14;99660.84;5017400;28;20214;-80
2022/02/19 06:18:18;;;;;;;5.57;1.27;;;;;;;4.00;70.34;99680.75;5002493;28;20213;-80
2022/02/19 06:20:47;;;;;;;7.03;1.23;;;;;;;4.04;70.38;99694.63;5018059;28;20231;-82
2022/02/19 06:23:15;;;;;;;5.17;1.00;;;;;;;4.10;69.81;99670.59;5010858;28;20227;-80
2022/02/19 06:25:41;;;;;;;1.90;0.57;;;;;;;4.12;68.82;99703.81;5013995;28;20214;-81
2022/02/19 06:28:08;;;;;;;5.47;0.93;;;;;;;4.18;68.56;99695.59;5013452;28;20203;-81
2022/02/19 06:30:34;;;;;;;8.77;1.27;;;;;;;4.24;68.36;99706.75;5016520;28;20231;-82
2022/02/19 06:33:01;;;;;;;5.63;1.00;;;;;;;4.32;67.94;99723.00;5011451;28;20203;-80
2022/02/19 06:35:27;;;;;;;3.33;0.87;;;;;;;4.37;68.11;99723.63;5017104;28;20218;-81
2022/02/19 06:37:54;;;;;;;5.83;1.43;;;;;;;4.39;67.60;99740.22;5014653;28;20230;-80
2022/02/19 06:40:22;;;;;;;4.10;1.00;;;;;;;4.42;67.45;99733.00;5007181;28;20228;-80
2022/02/19 06:42:49;;;;;;;7.13;1.00;;;;;;;4.45;67.14;99729.38;5009193;28;20242;-80
2022/02/19 06:45:15;;;;;;;2.83;1.00;;;;;;;4.43;65.82;99741.78;5011105;28;20650;-80
2022/02/19 06:47:42;;;;;;;4.53;1.10;;;;;;;4.44;66.45;99743.47;5004576;28;20476;-79
2022/02/19 06:50:10;;;;;;;5.10;1.40;;;;;;;4.46;66.48;99753.03;5012011;28;20234;-82
2022/02/19 06:52:37;;;;;;;5.40;1.70;;;;;;;4.47;65.78;99759.13;5007104;28;20662;-79
2022/02/19 06:55:04;;;;;;;10.90;1.20;;;;;;;4.46;65.65;99760.06;5006597;28;20210;-79
2022/02/19 06:57:32;;;;;;;3.53;1.20;;;;;;;4.48;64.96;99766.09;5009875;28;20585;-80
2022/02/19 06:59:59;;;;;;;7.40;1.03;;;;;;;4.49;65.09;99783.63;5013150;28;20325;-81
2022/02/19 07:02:25;;;;;;;5.10;1.27;;;;;;;4.43;64.88;99798.00;5004681;28;20591;-82
2022/02/19 07:04:52;;;;;;;6.07;1.27;;;;;;;4.44;64.43;99804.13;5004538;28;20211;-79
2022/02/19 07:07:18;;;;;;;2.67;1.17;;;;;;;4.44;63.84;99814.66;5002624;28;20213;-80
2022/02/19 07:09:45;;;;;;;8.23;1.90;;;;;;;4.46;64.31;99818.06;5017799;28;20222;-81
2022/02/19 07:12:11;;;;;;;3.17;0.90;;;;;;;4.49;63.83;99834.56;5015489;28;20198;-79
2022/02/19 07:14:39;;;;;;;6.50;1.30;;;;;;;4.49;63.77;99837.19;5015288;28;20587;-81
2022/02/19 07:17:06;;;;;;;5.80;1.30;;;;;;;4.48;63.30;99837.28;5017567;28;20661;-81
2022/02/19 07:19:33;;;;;;;5.07;1.70;;;;;;;4.48;63.51;99845.19;5017346;28;20265;-80
2022/02/19 07:22:00;;;;;;;4.47;1.30;;;;;;;4.48;63.57;99858.38;5000437;28;20213;-79
2022/02/19 07:24:26;;;;;;;5.83;1.60;;;;;;;4.49;63.05;99858.28;5011333;28;20231;-81
2022/02/19 07:26:54;;;;;;;4.33;1.30;;;;;;;4.51;63.12;99871.41;5014174;28;20205;-80
2022/02/19 07:29:21;;;;;;;4.40;0.93;;;;;;;4.49;63.37;99879.38;5008797;28;20233;-80
2022/02/19 07:31:49;;;;;;;4.13;0.90;;;;;;;4.51;62.62;99876.69;5005243;28;20215;-83
2022/02/19 07:34:16;;;;;;;7.17;1.03;;;;;;;4.53;62.38;99906.47;5008214;28;20207;-81
2022/02/19 07:36:42;;;;;;;3.73;0.77;;;;;;;4.56;62.69;99902.81;5007313;28;20207;-80
2022/02/19 07:39:10;;;;;;;4.63;1.47;;;;;;;4.56;62.55;99901.03;5006641;28;20245;-80
2022/02/19 07:41:37;;;;;;;3.93;0.87;;;;;;;4.56;62.06;99914.22;5004880;28;20235;-79
2022/02/19 07:44:04;;;;;;;5.10;1.20;;;;;;;4.60;62.32;99907.88;5007310;28;20289;-83
2022/02/19 07:46:31;;;;;;;4.20;1.13;;;;;;;4.58;62.14;99930.81;5001939;28;20218;-79
2022/02/19 07:58:17;;;;;;;6.53;1.33;;;;;;;4.58;61.62;99930.81;5008469;28;20231;-80
2022/02/19 07:59:58;;;;;;;3.70;1.10;;;;;;;4.68;61.91;99966.34;5006500;28;20249;-79
2022/02/19 08:02:25;;;;;;;6.07;1.30;;;;;;;4.70;61.80;99971.53;4999677;28;20221;-79
2022/02/19 08:04:52;;;;;;;4.97;1.10;;;;;;;4.72;61.85;99996.06;5002256;28;20301;-80
2022/02/19 08:07:19;;;;;;;5.77;0.90;;;;;;;4.75;61.99;99996.78;5005317;28;20209;-80
2022/02/19 08:09:45;;;;;;;6.30;1.53;;;;;;;4.80;62.32;100000.03;5007053;28;20587;-82
2022/02/19 08:12:12;;;;;;;9.50;1.30;;;;;;;4.85;61.89;100003.28;5001884;28;20200;-81
2022/02/19 08:14:38;;;;;;;6.20;1.40;;;;;;;4.91;62.31;99993.38;5009272;28;20202;-81
2022/02/19 08:17:05;;;;;;;3.20;0.83;;;;;;;4.95;62.70;100010.75;5002187;28;20225;-81
2022/02/19 08:19:32;;;;;;;5.00;1.40;;;;;;;5.03;62.88;100008.56;5006748;28;20595;-81
2022/02/19 08:22:00;;;;;;;6.97;1.70;;;;;;;5.10;63.13;100036.38;5006788;28;20210;-81
2022/02/19 08:24:26;;;;;;;6.43;2.10;;;;;;;5.19;63.31;100020.06;5003726;28;20238;-80
2022/02/19 08:26:53;;;;;;;7.20;1.17;;;;;;;5.21;63.31;100036.66;5006380;28;20213;-82
2022/02/19 08:29:19;;;;;;;4.47;1.30;;;;;;;5.23;62.94;100043.56;5008662;28;20238;-80
2022/02/19 08:31:46;;;;;;;6.60;1.47;;;;;;;5.26;63.03;100058.41;5006613;28;20576;-84
2022/02/19 08:34:12;;;;;;;5.70;1.57;;;;;;;5.31;63.47;100053.75;5008962;28;20214;-79
2022/02/19 08:36:39;;;;;;;8.03;1.43;;;;;;;5.31;63.02;100066.97;5002846;28;20298;-80
2022/02/19 08:39:07;;;;;;;8.57;1.70;;;;;;;5.35;63.19;100076.44;5005086;28;20223;-82
2022/02/19 08:41:33;;;;;;;6.10;1.97;;;;;;;5.39;62.77;100088.53;5004600;28;20203;-80
2022/02/19 08:44:00;;;;;;;7.00;1.27;;;;;;;5.35;62.54;100099.34;5006943;28;20222;-81
2022/02/19 08:46:26;;;;;;;8.53;1.37;;;;;;;5.31;62.39;100101.28;5006624;28;20211;-82
2022/02/19 08:48:53;;;;;;;4.13;1.00;;;;;;;5.30;62.63;100110.13;5003036;28;20619;-83
2022/02/19 08:51:19;;;;;;;7.20;1.67;;;;;;;5.29;62.45;100123.41;5002428;28;20210;-82
2022/02/19 08:53:46;;;;;;;9.97;1.63;;;;;;;5.31;62.43;100118.91;4997098;28;20203;-82
2022/02/19 08:56:14;;;;;;;8.97;1.37;;;;;;;5.32;62.64;100133.81;4998598;28;20207;-82
2022/02/19 08:58:40;;;;;;;4.37;1.20;;;;;;;5.31;62.75;100135.59;4999748;28;20588;-82
2022/02/19 09:01:07;;;;;;;5.73;1.50;;;;;;;5.33;62.67;100131.09;5001494;28;20217;-81
2022/02/19 09:03:34;;;;;;;6.97;1.33;;;;;;;5.35;62.37;100136.31;5004969;28;20570;-82
2022/02/19 09:06:01;;;;;;;8.53;1.63;;;;;;;5.35;62.44;100149.53;5002714;28;20202;-84
2022/02/19 09:08:27;;;;;;;8.23;1.97;;;;;;;5.31;62.35;100153.25;5003919;28;20211;-84
2022/02/19 09:10:54;;;;;;;6.63;1.40;;;;;;;5.32;62.44;100147.88;5003842;28;20223;-83
2022/02/19 09:13:22;;;;;;;9.80;1.50;;;;;;;5.31;62.55;100153.25;5010616;28;20207;-86
2022/02/19 09:15:49;;;;;;;10.63;2.30;;;;;;;5.26;62.65;100165.81;5002376;28;20199;-84
2022/02/19 09:18:16;;;;;;;54.90;18.30;;;;;;;5.22;62.19;100170.38;5004065;28;20203;-84
2022/02/19 09:20:42;;;;;;;13.53;4.33;;;;;;;5.21;62.08;100168.66;5004268;28;20598;-86
2022/02/19 09:23:09;;;;;;;9.00;2.47;;;;;;;5.26;62.44;100190.41;5005664;28;20233;-85
2022/02/19 09:25:36;;;;;;;5.53;2.57;;;;;;;5.27;62.43;100178.94;5008368;28;20203;-85
2022/02/19 09:28:03;;;;;;;6.83;1.87;;;;;;;5.30;62.67;100173.50;5013924;28;20214;-85
2022/02/19 09:30:30;;;;;;;7.73;2.07;;;;;;;5.33;62.80;100178.63;5005380;28;20302;-85
2022/02/19 09:32:59;;;;;;;4.33;2.67;;;;;;;5.36;62.77;100194.34;5005435;28;20212;-84
2022/02/19 09:35:26;;;;;;;5.57;3.40;;;;;;;5.42;63.00;100209.00;5006747;28;20586;-85
2022/02/19 09:37:53;;;;;;;5.50;4.53;;;;;;;5.44;62.65;100213.28;5010675;28;20204;-84
2022/02/19 09:40:20;;;;;;;7.80;6.60;;;;;;;5.45;62.46;100204.44;5009248;28;20241;-86
2022/02/19 09:42:49;;;;;;;9.50;3.60;;;;;;;5.41;62.49;100212.56;5008727;28;20199;-85
2022/02/19 09:45:17;;;;;;;7.13;3.97;;;;;;;5.39;62.58;100228.50;5003873;28;20211;-85
2022/02/19 09:47:45;;;;;;;4.60;2.57;;;;;;;5.39;62.64;100220.56;5003450;28;20250;-84
2022/02/19 09:50:12;;;;;;;7.20;2.77;;;;;;;5.42;62.71;100238.91;5009652;28;20229;-84
2022/02/19 09:52:39;;;;;;;7.67;3.63;;;;;;;5.46;62.83;100231.69;5003703;28;20207;-85
2022/02/19 09:55:07;;;;;;;5.23;2.73;;;;;;;5.47;62.50;100244.84;5006070;28;20254;-85
2022/02/19 09:57:34;;;;;;;6.60;2.80;;;;;;;5.49;62.87;100240.34;5009294;28;20211;-85
2022/02/19 10:00:00;;;;;;;6.53;3.17;;;;;;;5.50;62.94;100243.84;5010850;28;20237;-84
2022/02/19 10:02:32;;;;;;;5.70;2.80;;;;;;;5.53;63.14;100241.91;5010346;28;20210;-84
2022/02/19 10:05:12;;;;;;;8.43;2.80;;;;;;;5.52;63.53;100240.19;5015581;28;20608;-86
2022/02/19 10:07:41;;;;;;;4.60;2.43;;;;;;;5.52;63.57;100237.53;5007673;28;20206;-86
2022/02/19 10:10:08;;;;;;;6.23;3.00;;;;;;;5.42;63.40;100241.56;5009978;28;20231;-85
2022/02/19 10:12:45;;;;;;;11.33;2.80;;;;;;;5.39;63.30;100248.75;5002519;28;20207;-85
2022/02/19 10:15:11;;;;;;;9.87;2.83;;;;;;;5.34;63.45;100258.72;5011547;28;20207;-84
2022/02/19 10:17:39;;;;;;;7.53;1.90;;;;;;;5.33;63.77;100278.97;5009387;28;20679;-85
2022/02/19 10:20:08;;;;;;;6.50;2.10;;;;;;;5.36;63.52;100268.28;5011784;28;20226;-84
2022/02/19 10:22:39;;;;;;;8.53;2.47;;;;;;;5.39;63.69;100252.25;5009209;28;20231;-85
2022/02/19 10:25:08;;;;;;;11.17;1.97;;;;;;;5.40;64.17;100274.25;5006259;28;20266;-85
2022/02/19 10:27:39;;;;;;;4.77;2.43;;;;;;;5.34;63.14;100283.34;5004477;28;20290;-84
2022/02/19 10:30:07;;;;;;;8.13;2.30;;;;;;;5.36;62.94;100278.84;5000570;28;20227;-84
2022/02/19 10:32:47;;;;;;;13.10;3.73;;;;;;;5.35;62.39;100277.13;5009237;28;20257;-85
2022/02/19 10:35:15;;;;;;;3.97;2.10;;;;;;;5.37;62.86;100279.69;5004466;28;20213;-85
2022/02/19 10:37:44;;;;;;;5.60;2.07;;;;;;;5.46;62.89;100279.25;5003359;28;20212;-84
2022/02/19 10:40:34;;;;;;;6.37;2.60;;;;;;;5.45;61.95;100288.94;5007856;28;20222;-85
2022/02/19 10:43:04;;;;;;;5.63;2.07;;;;;;;5.47;61.29;100286.22;5005615;28;20287;-85
2022/02/19 10:45:31;;;;;;;5.53;2.07;;;;;;;5.55;61.65;100277.00;5005950;28;20609;-85
2022/02/19 10:48:12;;;;;;;5.63;2.27;;;;;;;5.69;62.02;100286.06;5003541;28;20204;-85
2022/02/19 10:50:39;;;;;;;4.33;1.97;;;;;;;5.77;62.05;100270.66;5005648;28;20231;-86
2022/02/19 10:53:07;;;;;;;7.73;2.83;;;;;;;5.83;61.38;100289.72;5008789;28;20203;-85
2022/02/19 10:55:34;;;;;;;4.93;1.40;;;;;;;5.84;60.83;100291.44;5008036;28;20278;-85
2022/02/19 10:58:05;;;;;;;3.63;1.87;;;;;;;5.88;60.29;100276.28;5009984;28;20207;-84
2022/02/19 11:00:34;;;;;;;8.13;1.80;;;;;;;5.96;60.92;100297.91;5013137;28;20739;-84
2022/02/19 11:03:02;;;;;;;5.60;1.90;;;;;;;6.01;60.38;100301.19;5013083;28;20207;-85
2022/02/19 11:05:30;;;;;;;4.90;1.40;;;;;;;6.06;60.42;100293.91;5007757;28;20610;-86
2022/02/19 11:07:57;;;;;;;7.40;1.57;;;;;;;6.12;59.96;100304.16;5006023;28;20204;-83
2022/02/19 11:10:26;;;;;;;6.40;1.57;;;;;;;6.20;59.66;100306.41;5015733;28;20230;-85
2022/02/19 11:12:53;;;;;;;7.07;1.60;;;;;;;6.22;59.41;100301.91;5007201;28;20230;-86
2022/02/19 11:15:22;;;;;;;6.23;1.97;;;;;;;6.28;59.34;100291.84;5007758;28;20213;-86
2022/02/19 11:17:49;;;;;;;7.40;1.87;;;;;;;6.35;59.29;100304.78;5002606;28;20195;-85
2022/02/19 11:20:16;;;;;;;5.73;1.47;;;;;;;6.34;58.50;100284.53;5002224;28;20230;-85
2022/02/19 11:22:43;;;;;;;4.33;1.43;;;;;;;6.31;58.53;100298.78;5005140;28;20214;-85
2022/02/19 11:25:11;;;;;;;6.40;2.57;;;;;;;6.34;58.42;100318.94;5002210;28;20227;-84
2022/02/19 11:27:47;;;;;;;7.27;2.87;;;;;;;6.39;58.66;100314.25;5009620;28;20233;-85
2022/02/19 11:30:14;;;;;;;7.07;2.37;;;;;;;6.39;58.53;100317.78;5008057;28;20692;-85
2022/02/19 11:32:43;;;;;;;8.07;3.77;;;;;;;6.42;58.63;100322.06;5006042;28;20561;-84
2022/02/19 11:35:10;;;;;;;7.93;3.33;;;;;;;6.43;58.45;100315.81;5005872;28;20200;-85
2022/02/19 11:37:42;;;;;;;5.43;2.37;;;;;;;6.47;58.75;100317.34;5005985;28;20203;-85
2022/02/19 11:40:11;;;;;;;7.93;2.90;;;;;;;6.50;58.26;100293.38;5005823;28;20228;-85
2022/02/19 11:42:41;;;;;;;5.70;2.07;;;;;;;6.45;57.38;100309.50;5002952;28;20574;-85
2022/02/19 11:45:25;;;;;;;6.47;3.63;;;;;;;6.38;56.88;100328.44;5008845;28;20326;-85
2022/02/19 11:47:55;;;;;;;7.10;2.93;;;;;;;6.30;56.28;100328.81;5011192;28;20586;-85